sensor_id;sensor_type;location;lat;lon;timestamp;temperature;humidity
65034;DHT22;51601;51.356;12.458;2022-09-25T00:01:41;11.50;76.00
65034;DHT22;51601;51.356;12.458;2022-09-25T00:06:07;11.40;75.50
65034;DHT22;51601;51.356;12.458;2022-09-25T00:10:21;11.40;75.70
65034;DHT22;51601;51.356;12.458;2022-09-25T00:14:36;11.30;75.70
65034;DHT22;51601;51.356;12.458;2022-09-25T00:18:52;11.30;76.00
65034;DHT22;51601;51.356;12.458;2022-09-25T00:23:23;11.30;76.30
65034;DHT22;51601;51.356;12.458;2022-09-25T00:27:37;11.30;76.40
65034;DHT22;51601;51.356;12.458;2022-09-25T00:31:53;11.20;76.40
65034;DHT22;51601;51.356;12.458;2022-09-25T00:36:09;11.20;76.60
65034;DHT22;51601;51.356;12.458;2022-09-25T00:40:24;11.10;76.80
65034;DHT22;51601;51.356;12.458;2022-09-25T00:44:54;11.00;76.90
65034;DHT22;51601;51.356;12.458;2022-09-25T00:49:14;10.90;77.50
65034;DHT22;51601;51.356;12.458;2022-09-25T00:53:32;10.90;77.70
65034;DHT22;51601;51.356;12.458;2022-09-25T00:57:49;10.90;78.20
65034;DHT22;51601;51.356;12.458;2022-09-25T01:02:05;10.80;78.40
65034;DHT22;51601;51.356;12.458;2022-09-25T01:06:20;10.90;78.80
65034;DHT22;51601;51.356;12.458;2022-09-25T01:10:36;10.80;79.00
65034;DHT22;51601;51.356;12.458;2022-09-25T01:14:50;10.80;79.00
65034;DHT22;51601;51.356;12.458;2022-09-25T01:19:12;10.70;79.10
65034;DHT22;51601;51.356;12.458;2022-09-25T01:23:39;10.70;79.30
65034;DHT22;51601;51.356;12.458;2022-09-25T01:28:24;10.60;79.50
65034;DHT22;51601;51.356;12.458;2022-09-25T01:32:54;10.50;79.90
65034;DHT22;51601;51.356;12.458;2022-09-25T01:37:15;10.50;80.90
65034;DHT22;51601;51.356;12.458;2022-09-25T01:41:36;10.50;81.20
65034;DHT22;51601;51.356;12.458;2022-09-25T01:45:54;10.50;83.40
65034;DHT22;51601;51.356;12.458;2022-09-25T01:50:13;10.60;85.30
65034;DHT22;51601;51.356;12.458;2022-09-25T01:54:33;10.80;85.50
65034;DHT22;51601;51.356;12.458;2022-09-25T01:58:51;10.80;84.90
65034;DHT22;51601;51.356;12.458;2022-09-25T02:03:10;10.90;85.10
65034;DHT22;51601;51.356;12.458;2022-09-25T02:07:29;10.90;85.30
65034;DHT22;51601;51.356;12.458;2022-09-25T02:11:50;10.90;85.30
65034;DHT22;51601;51.356;12.458;2022-09-25T02:16:10;10.90;85.30
65034;DHT22;51601;51.356;12.458;2022-09-25T02:20:28;10.90;85.40
65034;DHT22;51601;51.356;12.458;2022-09-25T02:24:49;10.90;85.20
65034;DHT22;51601;51.356;12.458;2022-09-25T02:29:10;10.90;85.10
65034;DHT22;51601;51.356;12.458;2022-09-25T02:33:24;10.90;85.00
65034;DHT22;51601;51.356;12.458;2022-09-25T02:37:38;10.90;84.80
65034;DHT22;51601;51.356;12.458;2022-09-25T02:42:09;10.90;85.00
65034;DHT22;51601;51.356;12.458;2022-09-25T02:46:34;10.90;85.10
65034;DHT22;51601;51.356;12.458;2022-09-25T02:50:58;10.80;85.10
65034;DHT22;51601;51.356;12.458;2022-09-25T02:55:20;10.90;85.10
65034;DHT22;51601;51.356;12.458;2022-09-25T02:59:41;10.90;85.00
65034;DHT22;51601;51.356;12.458;2022-09-25T03:03:59;10.90;85.00
65034;DHT22;51601;51.356;12.458;2022-09-25T03:08:14;10.90;85.00
65034;DHT22;51601;51.356;12.458;2022-09-25T03:12:45;11.00;85.10
65034;DHT22;51601;51.356;12.458;2022-09-25T03:17:02;11.00;85.70
65034;DHT22;51601;51.356;12.458;2022-09-25T03:21:17;11.00;85.90
65034;DHT22;51601;51.356;12.458;2022-09-25T03:25:31;11.00;85.30
65034;DHT22;51601;51.356;12.458;2022-09-25T03:29:44;11.10;85.40
65034;DHT22;51601;51.356;12.458;2022-09-25T03:34:01;11.10;85.50
65034;DHT22;51601;51.356;12.458;2022-09-25T03:38:15;11.20;85.60
65034;DHT22;51601;51.356;12.458;2022-09-25T03:42:28;11.20;85.50
65034;DHT22;51601;51.356;12.458;2022-09-25T03:46:43;11.30;85.60
65034;DHT22;51601;51.356;12.458;2022-09-25T03:50:58;11.30;85.50
65034;DHT22;51601;51.356;12.458;2022-09-25T03:55:12;11.30;85.60
65034;DHT22;51601;51.356;12.458;2022-09-25T03:59:26;11.40;85.80
65034;DHT22;51601;51.356;12.458;2022-09-25T04:03:41;11.40;86.00
65034;DHT22;51601;51.356;12.458;2022-09-25T04:08:00;11.50;86.20
65034;DHT22;51601;51.356;12.458;2022-09-25T04:12:14;11.50;86.30
65034;DHT22;51601;51.356;12.458;2022-09-25T04:16:28;11.60;86.30
65034;DHT22;51601;51.356;12.458;2022-09-25T04:20:42;11.70;86.20
65034;DHT22;51601;51.356;12.458;2022-09-25T04:24:58;11.70;86.10
65034;DHT22;51601;51.356;12.458;2022-09-25T04:29:12;11.70;86.10
65034;DHT22;51601;51.356;12.458;2022-09-25T04:33:26;11.80;86.20
65034;DHT22;51601;51.356;12.458;2022-09-25T04:37:58;11.80;86.20
65034;DHT22;51601;51.356;12.458;2022-09-25T04:42:14;11.90;86.20
65034;DHT22;51601;51.356;12.458;2022-09-25T04:46:27;11.90;86.20
65034;DHT22;51601;51.356;12.458;2022-09-25T04:50:46;11.90;86.20
65034;DHT22;51601;51.356;12.458;2022-09-25T04:55:00;11.90;86.20
65034;DHT22;51601;51.356;12.458;2022-09-25T04:59:17;12.00;86.20
65034;DHT22;51601;51.356;12.458;2022-09-25T05:03:31;12.00;86.20
65034;DHT22;51601;51.356;12.458;2022-09-25T05:07:51;12.00;86.20
65034;DHT22;51601;51.356;12.458;2022-09-25T05:12:05;12.00;86.40
65034;DHT22;51601;51.356;12.458;2022-09-25T05:16:20;12.10;86.70
65034;DHT22;51601;51.356;12.458;2022-09-25T05:20:34;12.10;87.00
65034;DHT22;51601;51.356;12.458;2022-09-25T05:24:48;12.20;87.10
65034;DHT22;51601;51.356;12.458;2022-09-25T05:29:10;12.20;87.00
65034;DHT22;51601;51.356;12.458;2022-09-25T05:33:25;12.30;86.90
65034;DHT22;51601;51.356;12.458;2022-09-25T05:37:39;12.30;86.80
65034;DHT22;51601;51.356;12.458;2022-09-25T05:41:53;12.30;86.70
65034;DHT22;51601;51.356;12.458;2022-09-25T05:46:08;12.40;86.60
65034;DHT22;51601;51.356;12.458;2022-09-25T05:50:23;12.40;86.50
65034;DHT22;51601;51.356;12.458;2022-09-25T05:54:37;12.40;86.50
65034;DHT22;51601;51.356;12.458;2022-09-25T05:58:51;12.50;86.50
65034;DHT22;51601;51.356;12.458;2022-09-25T06:03:06;12.50;86.50
65034;DHT22;51601;51.356;12.458;2022-09-25T06:07:22;12.50;86.60
65034;DHT22;51601;51.356;12.458;2022-09-25T06:11:35;12.50;86.60
65034;DHT22;51601;51.356;12.458;2022-09-25T06:15:49;12.60;86.80
65034;DHT22;51601;51.356;12.458;2022-09-25T06:20:04;12.60;86.80
65034;DHT22;51601;51.356;12.458;2022-09-25T06:24:28;12.70;86.90
65034;DHT22;51601;51.356;12.458;2022-09-25T06:28:43;12.80;87.10
65034;DHT22;51601;51.356;12.458;2022-09-25T06:32:58;12.80;87.00
65034;DHT22;51601;51.356;12.458;2022-09-25T06:37:12;12.90;87.50
65034;DHT22;51601;51.356;12.458;2022-09-25T06:41:27;13.10;87.80
65034;DHT22;51601;51.356;12.458;2022-09-25T06:45:42;13.30;87.40
65034;DHT22;51601;51.356;12.458;2022-09-25T06:49:56;13.30;86.70
65034;DHT22;51601;51.356;12.458;2022-09-25T06:54:10;13.40;86.40
65034;DHT22;51601;51.356;12.458;2022-09-25T06:58:28;13.40;86.40
65034;DHT22;51601;51.356;12.458;2022-09-25T07:02:44;13.50;86.40
65034;DHT22;51601;51.356;12.458;2022-09-25T07:07:16;13.60;86.50
65034;DHT22;51601;51.356;12.458;2022-09-25T07:11:32;13.80;86.50
65034;DHT22;51601;51.356;12.458;2022-09-25T07:15:51;14.00;85.80
65034;DHT22;51601;51.356;12.458;2022-09-25T07:20:06;14.10;85.80
65034;DHT22;51601;51.356;12.458;2022-09-25T07:24:20;14.20;84.50
65034;DHT22;51601;51.356;12.458;2022-09-25T07:28:34;14.30;84.10
65034;DHT22;51601;51.356;12.458;2022-09-25T07:32:52;14.30;83.60
65034;DHT22;51601;51.356;12.458;2022-09-25T07:37:27;14.40;83.30
65034;DHT22;51601;51.356;12.458;2022-09-25T07:41:41;14.40;83.00
65034;DHT22;51601;51.356;12.458;2022-09-25T07:45:55;14.40;82.80
65034;DHT22;51601;51.356;12.458;2022-09-25T07:50:10;14.50;83.00
65034;DHT22;51601;51.356;12.458;2022-09-25T07:54:27;14.60;83.20
65034;DHT22;51601;51.356;12.458;2022-09-25T07:58:41;14.80;83.30
65034;DHT22;51601;51.356;12.458;2022-09-25T08:02:55;15.20;83.30
65034;DHT22;51601;51.356;12.458;2022-09-25T08:07:13;15.70;82.40
65034;DHT22;51601;51.356;12.458;2022-09-25T08:11:27;16.10;80.60
65034;DHT22;51601;51.356;12.458;2022-09-25T08:15:42;16.50;79.30
65034;DHT22;51601;51.356;12.458;2022-09-25T08:19:59;16.80;77.60
65034;DHT22;51601;51.356;12.458;2022-09-25T08:24:15;17.10;75.80
65034;DHT22;51601;51.356;12.458;2022-09-25T08:28:31;17.30;75.10
65034;DHT22;51601;51.356;12.458;2022-09-25T08:32:47;17.60;74.00
65034;DHT22;51601;51.356;12.458;2022-09-25T08:37:03;17.90;73.20
65034;DHT22;51601;51.356;12.458;2022-09-25T08:41:23;18.30;72.70
65034;DHT22;51601;51.356;12.458;2022-09-25T08:45:40;18.80;71.10
65034;DHT22;51601;51.356;12.458;2022-09-25T08:50:15;19.40;69.10
65034;DHT22;51601;51.356;12.458;2022-09-25T08:54:33;20.40;68.30
65034;DHT22;51601;51.356;12.458;2022-09-25T08:58:53;22.20;66.20
65034;DHT22;51601;51.356;12.458;2022-09-25T09:03:09;24.10;59.00
65034;DHT22;51601;51.356;12.458;2022-09-25T09:07:29;25.40;55.30
65034;DHT22;51601;51.356;12.458;2022-09-25T09:11:50;26.70;52.00
65034;DHT22;51601;51.356;12.458;2022-09-25T09:16:15;28.00;50.20
65034;DHT22;51601;51.356;12.458;2022-09-25T09:20:40;29.30;46.80
65034;DHT22;51601;51.356;12.458;2022-09-25T09:25:02;30.10;43.80
65034;DHT22;51601;51.356;12.458;2022-09-25T09:30:00;30.20;41.40
65034;DHT22;51601;51.356;12.458;2022-09-25T09:34:38;29.70;40.40
65034;DHT22;51601;51.356;12.458;2022-09-25T09:39:18;28.80;41.00
65034;DHT22;51601;51.356;12.458;2022-09-25T09:43:45;28.30;41.80
65034;DHT22;51601;51.356;12.458;2022-09-25T09:48:14;28.90;41.50
65034;DHT22;51601;51.356;12.458;2022-09-25T09:52:34;29.70;40.40
65034;DHT22;51601;51.356;12.458;2022-09-25T09:56:50;30.70;38.70
65034;DHT22;51601;51.356;12.458;2022-09-25T10:01:06;31.20;37.00
65034;DHT22;51601;51.356;12.458;2022-09-25T10:05:44;30.80;36.20
65034;DHT22;51601;51.356;12.458;2022-09-25T10:09:59;29.70;37.10
65034;DHT22;51601;51.356;12.458;2022-09-25T10:14:16;28.70;38.10
65034;DHT22;51601;51.356;12.458;2022-09-25T10:18:37;27.70;39.40
65034;DHT22;51601;51.356;12.458;2022-09-25T10:22:53;26.90;40.60
65034;DHT22;51601;51.356;12.458;2022-09-25T10:27:25;26.60;41.60
65034;DHT22;51601;51.356;12.458;2022-09-25T10:31:40;26.70;41.70
65034;DHT22;51601;51.356;12.458;2022-09-25T10:35:55;27.00;41.70
65034;DHT22;51601;51.356;12.458;2022-09-25T10:40:23;27.50;41.30
65034;DHT22;51601;51.356;12.458;2022-09-25T10:44:39;27.80;40.60
65034;DHT22;51601;51.356;12.458;2022-09-25T10:49:10;28.30;39.80
65034;DHT22;51601;51.356;12.458;2022-09-25T10:53:58;28.60;39.10
65034;DHT22;51601;51.356;12.458;2022-09-25T10:58:27;28.90;38.80
65034;DHT22;51601;51.356;12.458;2022-09-25T11:02:44;29.40;38.20
65034;DHT22;51601;51.356;12.458;2022-09-25T11:07:00;29.70;37.40
65034;DHT22;51601;51.356;12.458;2022-09-25T11:11:21;29.60;37.20
65034;DHT22;51601;51.356;12.458;2022-09-25T11:15:38;29.50;37.40
65034;DHT22;51601;51.356;12.458;2022-09-25T11:20:11;29.50;37.10
65034;DHT22;51601;51.356;12.458;2022-09-25T11:24:37;29.50;36.90
65034;DHT22;51601;51.356;12.458;2022-09-25T11:28:57;29.10;37.40
65034;DHT22;51601;51.356;12.458;2022-09-25T11:33:24;29.00;37.60
65034;DHT22;51601;51.356;12.458;2022-09-25T11:37:44;28.90;37.70
65034;DHT22;51601;51.356;12.458;2022-09-25T11:42:04;28.80;38.00
65034;DHT22;51601;51.356;12.458;2022-09-25T11:46:24;28.70;38.30
65034;DHT22;51601;51.356;12.458;2022-09-25T11:50:46;28.70;38.30
65034;DHT22;51601;51.356;12.458;2022-09-25T12:00:03;28.10;38.30
65034;DHT22;51601;51.356;12.458;2022-09-25T12:04:31;27.40;39.00
65034;DHT22;51601;51.356;12.458;2022-09-25T12:09:07;26.50;40.40
65034;DHT22;51601;51.356;12.458;2022-09-25T12:13:36;25.80;41.60
65034;DHT22;51601;51.356;12.458;2022-09-25T12:18:00;25.10;42.30
65034;DHT22;51601;51.356;12.458;2022-09-25T12:22:21;24.20;43.70
65034;DHT22;51601;51.356;12.458;2022-09-25T12:26:43;23.50;45.10
65034;DHT22;51601;51.356;12.458;2022-09-25T12:31:10;22.90;46.60
65034;DHT22;51601;51.356;12.458;2022-09-25T12:35:36;22.40;47.70
65034;DHT22;51601;51.356;12.458;2022-09-25T12:39:54;22.00;48.70
65034;DHT22;51601;51.356;12.458;2022-09-25T12:44:13;21.80;50.20
65034;DHT22;51601;51.356;12.458;2022-09-25T12:48:41;21.50;50.10
65034;DHT22;51601;51.356;12.458;2022-09-25T12:53:01;21.40;50.90
65034;DHT22;51601;51.356;12.458;2022-09-25T12:57:20;21.30;51.20
65034;DHT22;51601;51.356;12.458;2022-09-25T13:01:44;21.20;52.20
65034;DHT22;51601;51.356;12.458;2022-09-25T13:06:06;21.10;51.80
65034;DHT22;51601;51.356;12.458;2022-09-25T13:10:28;21.00;52.20
65034;DHT22;51601;51.356;12.458;2022-09-25T13:14:47;20.90;52.30
65034;DHT22;51601;51.356;12.458;2022-09-25T13:19:12;20.80;52.50
65034;DHT22;51601;51.356;12.458;2022-09-25T13:23:40;20.70;52.90
65034;DHT22;51601;51.356;12.458;2022-09-25T13:28:04;20.60;53.20
65034;DHT22;51601;51.356;12.458;2022-09-25T13:32:20;20.50;53.20
65034;DHT22;51601;51.356;12.458;2022-09-25T13:36:44;20.40;53.30
65034;DHT22;51601;51.356;12.458;2022-09-25T13:41:00;20.40;53.80
65034;DHT22;51601;51.356;12.458;2022-09-25T13:45:26;20.40;53.80
65034;DHT22;51601;51.356;12.458;2022-09-25T13:49:48;20.20;54.00
65034;DHT22;51601;51.356;12.458;2022-09-25T13:54:05;20.20;54.10
65034;DHT22;51601;51.356;12.458;2022-09-25T14:03:40;20.20;54.70
65034;DHT22;51601;51.356;12.458;2022-09-25T14:08:00;20.30;54.60
65034;DHT22;51601;51.356;12.458;2022-09-25T14:12:25;20.40;54.50
65034;DHT22;51601;51.356;12.458;2022-09-25T14:16:44;20.40;54.30
65034;DHT22;51601;51.356;12.458;2022-09-25T14:21:01;20.50;53.90
65034;DHT22;51601;51.356;12.458;2022-09-25T14:25:28;20.50;53.60
65034;DHT22;51601;51.356;12.458;2022-09-25T14:29:45;20.50;53.40
65034;DHT22;51601;51.356;12.458;2022-09-25T14:34:20;20.40;53.30
65034;DHT22;51601;51.356;12.458;2022-09-25T14:38:59;20.30;53.40
65034;DHT22;51601;51.356;12.458;2022-09-25T14:43:31;20.20;53.60
65034;DHT22;51601;51.356;12.458;2022-09-25T14:47:54;20.00;53.70
65034;DHT22;51601;51.356;12.458;2022-09-25T14:52:15;19.90;53.90
65034;DHT22;51601;51.356;12.458;2022-09-25T14:56:32;19.70;54.20
65034;DHT22;51601;51.356;12.458;2022-09-25T15:00:50;19.70;54.50
65034;DHT22;51601;51.356;12.458;2022-09-25T15:05:26;19.60;54.50
65034;DHT22;51601;51.356;12.458;2022-09-25T15:09:41;19.50;54.80
65034;DHT22;51601;51.356;12.458;2022-09-25T15:14:17;19.40;55.40
65034;DHT22;51601;51.356;12.458;2022-09-25T15:18:34;19.30;55.80
65034;DHT22;51601;51.356;12.458;2022-09-25T15:22:59;19.30;56.00
65034;DHT22;51601;51.356;12.458;2022-09-25T15:27:16;19.30;56.10
65034;DHT22;51601;51.356;12.458;2022-09-25T15:31:35;19.30;56.00
65034;DHT22;51601;51.356;12.458;2022-09-25T15:35:53;19.30;56.00
65034;DHT22;51601;51.356;12.458;2022-09-25T15:40:18;19.40;56.00
65034;DHT22;51601;51.356;12.458;2022-09-25T15:44:34;19.40;55.90
65034;DHT22;51601;51.356;12.458;2022-09-25T15:48:52;19.50;55.80
65034;DHT22;51601;51.356;12.458;2022-09-25T15:53:18;19.50;55.70
65034;DHT22;51601;51.356;12.458;2022-09-25T15:57:33;19.60;55.80
65034;DHT22;51601;51.356;12.458;2022-09-25T16:01:47;19.60;55.60
65034;DHT22;51601;51.356;12.458;2022-09-25T16:06:20;19.60;55.90
65034;DHT22;51601;51.356;12.458;2022-09-25T16:10:34;19.50;55.90
65034;DHT22;51601;51.356;12.458;2022-09-25T16:14:49;19.40;56.30
65034;DHT22;51601;51.356;12.458;2022-09-25T16:19:19;19.20;56.80
65034;DHT22;51601;51.356;12.458;2022-09-25T16:23:35;19.00;57.30
65034;DHT22;51601;51.356;12.458;2022-09-25T16:27:50;18.80;57.50
65034;DHT22;51601;51.356;12.458;2022-09-25T16:32:07;18.60;57.90
65034;DHT22;51601;51.356;12.458;2022-09-25T16:36:35;18.40;59.10
65034;DHT22;51601;51.356;12.458;2022-09-25T16:41:01;18.20;58.90
65034;DHT22;51601;51.356;12.458;2022-09-25T16:45:17;17.90;59.60
65034;DHT22;51601;51.356;12.458;2022-09-25T16:49:32;17.80;60.20
65034;DHT22;51601;51.356;12.458;2022-09-25T16:53:47;17.50;60.80
65034;DHT22;51601;51.356;12.458;2022-09-25T16:58:08;17.30;61.40
65034;DHT22;51601;51.356;12.458;2022-09-25T17:02:29;17.10;62.10
65034;DHT22;51601;51.356;12.458;2022-09-25T17:06:47;16.90;62.60
65034;DHT22;51601;51.356;12.458;2022-09-25T17:11:01;16.70;63.00
65034;DHT22;51601;51.356;12.458;2022-09-25T17:15:20;16.50;64.40
65034;DHT22;51601;51.356;12.458;2022-09-25T17:19:34;16.30;64.30
65034;DHT22;51601;51.356;12.458;2022-09-25T17:23:48;16.20;64.60
65034;DHT22;51601;51.356;12.458;2022-09-25T17:28:02;16.00;65.20
65034;DHT22;51601;51.356;12.458;2022-09-25T17:32:18;15.90;65.70
65034;DHT22;51601;51.356;12.458;2022-09-25T17:36:32;15.90;66.20
65034;DHT22;51601;51.356;12.458;2022-09-25T17:40:47;15.80;66.30
65034;DHT22;51601;51.356;12.458;2022-09-25T17:45:11;15.80;66.70
65034;DHT22;51601;51.356;12.458;2022-09-25T17:49:59;15.80;67.60
65034;DHT22;51601;51.356;12.458;2022-09-25T17:54:13;15.80;67.10
65034;DHT22;51601;51.356;12.458;2022-09-25T17:58:30;15.70;67.20
65034;DHT22;51601;51.356;12.458;2022-09-25T18:02:44;15.80;67.40
65034;DHT22;51601;51.356;12.458;2022-09-25T18:06:59;15.80;67.50
65034;DHT22;51601;51.356;12.458;2022-09-25T18:11:13;15.80;67.50
65034;DHT22;51601;51.356;12.458;2022-09-25T18:15:29;15.90;67.60
65034;DHT22;51601;51.356;12.458;2022-09-25T18:19:43;15.90;67.60
65034;DHT22;51601;51.356;12.458;2022-09-25T18:24:16;15.90;67.60
65034;DHT22;51601;51.356;12.458;2022-09-25T18:28:30;15.90;67.60
65034;DHT22;51601;51.356;12.458;2022-09-25T18:32:45;16.00;67.70
65034;DHT22;51601;51.356;12.458;2022-09-25T18:37:00;15.90;67.60
65034;DHT22;51601;51.356;12.458;2022-09-25T18:41:16;15.90;67.60
65034;DHT22;51601;51.356;12.458;2022-09-25T18:45:29;15.90;67.70
65034;DHT22;51601;51.356;12.458;2022-09-25T18:49:45;15.90;67.80
65034;DHT22;51601;51.356;12.458;2022-09-25T18:54:00;15.90;67.80
65034;DHT22;51601;51.356;12.458;2022-09-25T18:58:17;15.80;67.80
65034;DHT22;51601;51.356;12.458;2022-09-25T19:02:31;15.90;67.90
65034;DHT22;51601;51.356;12.458;2022-09-25T19:06:49;15.80;68.50
65034;DHT22;51601;51.356;12.458;2022-09-25T19:11:11;15.80;67.90
65034;DHT22;51601;51.356;12.458;2022-09-25T19:15:27;15.80;68.20
65034;DHT22;51601;51.356;12.458;2022-09-25T19:19:45;15.80;68.20
65034;DHT22;51601;51.356;12.458;2022-09-25T19:24:00;15.70;68.30
65034;DHT22;51601;51.356;12.458;2022-09-25T19:28:14;15.70;68.50
65034;DHT22;51601;51.356;12.458;2022-09-25T19:32:32;15.70;68.80
65034;DHT22;51601;51.356;12.458;2022-09-25T19:36:46;15.60;69.10
65034;DHT22;51601;51.356;12.458;2022-09-25T19:41:03;15.60;69.30
65034;DHT22;51601;51.356;12.458;2022-09-25T19:45:18;15.60;69.50
65034;DHT22;51601;51.356;12.458;2022-09-25T19:49:33;15.60;70.40
65034;DHT22;51601;51.356;12.458;2022-09-25T19:53:48;15.50;69.70
65034;DHT22;51601;51.356;12.458;2022-09-25T19:58:02;15.60;69.90
65034;DHT22;51601;51.356;12.458;2022-09-25T20:02:16;15.50;70.00
65034;DHT22;51601;51.356;12.458;2022-09-25T20:06:33;15.50;70.20
65034;DHT22;51601;51.356;12.458;2022-09-25T20:10:47;15.40;70.50
65034;DHT22;51601;51.356;12.458;2022-09-25T20:15:01;15.40;70.70
65034;DHT22;51601;51.356;12.458;2022-09-25T20:19:15;15.40;70.90
65034;DHT22;51601;51.356;12.458;2022-09-25T20:23:32;15.40;71.00
65034;DHT22;51601;51.356;12.458;2022-09-25T20:27:46;15.40;71.20
65034;DHT22;51601;51.356;12.458;2022-09-25T20:32:00;15.40;71.30
65034;DHT22;51601;51.356;12.458;2022-09-25T20:36:15;15.30;71.50
65034;DHT22;51601;51.356;12.458;2022-09-25T20:40:30;15.30;71.60
65034;DHT22;51601;51.356;12.458;2022-09-25T20:44:44;15.30;71.70
65034;DHT22;51601;51.356;12.458;2022-09-25T20:48:59;15.30;71.80
65034;DHT22;51601;51.356;12.458;2022-09-25T20:53:13;15.30;71.90
65034;DHT22;51601;51.356;12.458;2022-09-25T20:57:31;15.30;72.00
65034;DHT22;51601;51.356;12.458;2022-09-25T21:01:46;15.30;72.30
65034;DHT22;51601;51.356;12.458;2022-09-25T21:06:01;15.40;72.70
65034;DHT22;51601;51.356;12.458;2022-09-25T21:10:15;15.50;73.10
65034;DHT22;51601;51.356;12.458;2022-09-25T21:14:31;15.50;73.30
65034;DHT22;51601;51.356;12.458;2022-09-25T21:18:50;15.50;73.80
65034;DHT22;51601;51.356;12.458;2022-09-25T21:23:05;15.40;74.80
65034;DHT22;51601;51.356;12.458;2022-09-25T21:27:18;15.30;76.30
65034;DHT22;51601;51.356;12.458;2022-09-25T21:31:36;15.10;78.40
65034;DHT22;51601;51.356;12.458;2022-09-25T21:35:49;15.00;81.00
65034;DHT22;51601;51.356;12.458;2022-09-25T21:40:05;14.80;83.90
65034;DHT22;51601;51.356;12.458;2022-09-25T21:44:19;14.60;86.60
65034;DHT22;51601;51.356;12.458;2022-09-25T21:48:38;14.50;89.30
65034;DHT22;51601;51.356;12.458;2022-09-25T21:52:52;14.30;90.70
65034;DHT22;51601;51.356;12.458;2022-09-25T21:57:06;14.30;91.70
65034;DHT22;51601;51.356;12.458;2022-09-25T22:01:21;14.10;92.30
65034;DHT22;51601;51.356;12.458;2022-09-25T22:05:37;14.10;92.90
65034;DHT22;51601;51.356;12.458;2022-09-25T22:09:53;14.00;93.20
65034;DHT22;51601;51.356;12.458;2022-09-25T22:14:07;14.00;93.50
65034;DHT22;51601;51.356;12.458;2022-09-25T22:18:28;14.00;93.70
65034;DHT22;51601;51.356;12.458;2022-09-25T22:22:46;13.90;93.80
65034;DHT22;51601;51.356;12.458;2022-09-25T22:27:00;13.90;94.00
65034;DHT22;51601;51.356;12.458;2022-09-25T22:31:16;13.80;94.10
65034;DHT22;51601;51.356;12.458;2022-09-25T22:35:30;13.80;94.20
65034;DHT22;51601;51.356;12.458;2022-09-25T22:39:45;13.80;94.30
65034;DHT22;51601;51.356;12.458;2022-09-25T22:43:58;13.80;94.30
65034;DHT22;51601;51.356;12.458;2022-09-25T22:48:14;13.70;94.40
65034;DHT22;51601;51.356;12.458;2022-09-25T22:52:28;13.70;94.40
65034;DHT22;51601;51.356;12.458;2022-09-25T22:56:43;13.70;94.40
65034;DHT22;51601;51.356;12.458;2022-09-25T23:00:57;13.70;94.40
65034;DHT22;51601;51.356;12.458;2022-09-25T23:05:12;13.70;94.40
65034;DHT22;51601;51.356;12.458;2022-09-25T23:09:26;13.70;94.40
65034;DHT22;51601;51.356;12.458;2022-09-25T23:13:41;13.70;94.40
65034;DHT22;51601;51.356;12.458;2022-09-25T23:17:55;13.70;94.40
65034;DHT22;51601;51.356;12.458;2022-09-25T23:22:09;13.70;94.40
65034;DHT22;51601;51.356;12.458;2022-09-25T23:26:23;13.70;94.40
65034;DHT22;51601;51.356;12.458;2022-09-25T23:30:39;13.60;94.40
65034;DHT22;51601;51.356;12.458;2022-09-25T23:34:53;13.60;94.40
65034;DHT22;51601;51.356;12.458;2022-09-25T23:39:08;13.60;94.40
65034;DHT22;51601;51.356;12.458;2022-09-25T23:43:23;13.60;94.40
65034;DHT22;51601;51.356;12.458;2022-09-25T23:47:39;13.70;94.40
65034;DHT22;51601;51.356;12.458;2022-09-25T23:51:53;13.60;94.40
65034;DHT22;51601;51.356;12.458;2022-09-25T23:56:09;13.60;94.40
